createdAt,value
2022-12-25T00:00:46.687Z,95.13
2022-12-25T00:02:48.874Z,94.72
2022-12-25T00:04:50.833Z,108.80
2022-12-25T00:06:52.612Z,110.38
2022-12-25T00:08:54.269Z,116.57
2022-12-25T00:11:04.376Z,117.47
2022-12-25T00:13:06.189Z,121.75
2022-12-25T00:15:08.197Z,113.80
2022-12-25T00:17:10.165Z,124.18
2022-12-25T00:19:11.917Z,105.55
2022-12-25T00:21:14.415Z,118.13
2022-12-25T00:23:16.315Z,118.65
2022-12-25T00:25:18.253Z,94.82
2022-12-25T00:27:19.969Z,90.35
2022-12-25T00:29:21.745Z,105.32
2022-12-25T00:31:24.924Z,109.15
2022-12-25T00:33:26.671Z,111.10
2022-12-25T00:35:28.661Z,98.60
2022-12-25T00:37:30.527Z,68.05
2022-12-25T00:39:32.204Z,88.05
2022-12-25T00:41:34.490Z,85.22
2022-12-25T00:43:36.728Z,71.10
2022-12-25T00:45:38.458Z,73.45
2022-12-25T00:47:40.423Z,97.07
2022-12-25T00:49:42.203Z,72.50
2022-12-25T00:51:43.879Z,77.60
2022-12-25T00:53:45.739Z,91.10
2022-12-25T00:55:54.645Z,81.30
2022-12-25T00:57:56.341Z,105.60
2022-12-25T00:59:58.179Z,151.45
2022-12-25T01:02:00.693Z,181.13
2022-12-25T01:04:02.445Z,105.88
2022-12-25T01:06:06.674Z,116.13
2022-12-25T01:08:08.894Z,132.93
2022-12-25T01:10:11.336Z,115.25
2022-12-25T01:12:13.169Z,107.35
2022-12-25T01:14:15.306Z,105.50
2022-12-25T01:16:17.151Z,96.80
2022-12-25T01:18:19.868Z,143.85
2022-12-25T01:20:21.765Z,92.78
2022-12-25T01:22:23.451Z,113.07
2022-12-25T01:24:25.180Z,111.28
2022-12-25T01:26:27.825Z,112.72
2022-12-25T01:28:29.516Z,120.22
2022-12-25T01:30:31.418Z,138.13
2022-12-25T01:32:33.298Z,155.10
2022-12-25T01:34:35.111Z,234.85
2022-12-25T01:36:37.015Z,429.60
2022-12-25T01:38:38.965Z,254.13
2022-12-25T01:40:41.093Z,234.18
2022-12-25T01:42:43.457Z,287.02
2022-12-25T01:44:48.252Z,178.73
2022-12-25T01:46:49.931Z,199.65
2022-12-25T01:48:53.413Z,264.60
2022-12-25T01:51:23.236Z,224.00
2022-12-25T01:53:26.531Z,253.07
2022-12-25T01:55:28.557Z,342.77
2022-12-25T01:57:34.916Z,219.80
2022-12-25T01:59:36.668Z,205.57
2022-12-25T02:01:38.600Z,306.45
2022-12-25T02:03:40.509Z,274.25
2022-12-25T02:05:42.589Z,204.60
2022-12-25T02:07:46.443Z,238.10
2022-12-25T02:09:48.856Z,139.32
2022-12-25T02:11:50.536Z,135.43
2022-12-25T02:13:52.306Z,105.00
2022-12-25T02:16:15.742Z,317.35
2022-12-25T02:18:42.214Z,194.63
2022-12-25T02:21:01.517Z,178.85
2022-12-25T02:23:29.578Z,122.90
2022-12-25T02:25:37.217Z,230.13
2022-12-25T02:28:05.632Z,235.02
2022-12-25T02:30:10.407Z,218.98
2022-12-25T02:32:29.980Z,179.07
2022-12-25T02:34:46.432Z,369.60
2022-12-25T02:37:11.613Z,167.25
2022-12-25T02:39:33.688Z,197.95
2022-12-25T02:41:39.929Z,191.52
2022-12-25T02:43:45.833Z,258.17
2022-12-25T02:45:55.724Z,168.48
2022-12-25T02:47:57.902Z,161.88
2022-12-25T02:50:01.084Z,150.90
2022-12-25T02:52:09.522Z,143.13
2022-12-25T02:54:16.500Z,156.45
2022-12-25T02:56:20.137Z,129.48
2022-12-25T03:00:26.090Z,130.45
2022-12-25T03:02:30.904Z,106.53
2022-12-25T03:04:33.786Z,117.53
2022-12-25T03:06:38.665Z,119.80
2022-12-25T03:08:43.251Z,144.85
2022-12-25T03:10:50.322Z,195.05
2022-12-25T03:12:56.630Z,198.00
2022-12-25T03:14:58.443Z,351.60
2022-12-25T03:17:00.788Z,125.28
2022-12-25T03:19:03.119Z,160.43
2022-12-25T03:21:05.142Z,152.13
2022-12-25T03:23:08.406Z,156.40
2022-12-25T03:25:10.815Z,202.45
2022-12-25T03:27:12.521Z,123.13
2022-12-25T03:29:14.211Z,122.05
2022-12-25T03:31:43.235Z,185.23
2022-12-25T03:34:09.731Z,236.30
2022-12-25T03:36:29.321Z,183.50
2022-12-25T03:38:43.102Z,137.00
2022-12-25T03:40:56.719Z,428.25
2022-12-25T03:43:21.141Z,128.25
2022-12-25T03:47:35.823Z,185.18
2022-12-25T03:49:46.549Z,391.60
2022-12-25T03:51:51.690Z,411.50
2022-12-25T03:54:04.215Z,322.48
2022-12-25T03:56:07.253Z,154.30
2022-12-25T03:58:20.608Z,322.95
2022-12-25T04:00:22.505Z,291.08
2022-12-25T04:02:24.545Z,260.05
2022-12-25T04:04:26.407Z,395.55
2022-12-25T04:06:28.388Z,299.60
2022-12-25T04:08:30.345Z,231.68
2022-12-25T04:10:32.037Z,357.08
2022-12-25T04:12:34.033Z,109.20
2022-12-25T04:14:35.762Z,437.38
2022-12-25T04:16:37.491Z,257.40
2022-12-25T04:18:39.576Z,406.90
2022-12-25T04:20:41.302Z,309.60
2022-12-25T04:22:42.966Z,397.13
2022-12-25T04:24:44.964Z,305.63
2022-12-25T04:26:46.692Z,206.55
2022-12-25T04:28:48.420Z,467.00
2022-12-25T04:30:50.209Z,115.15
2022-12-25T04:32:57.816Z,494.20
2022-12-25T04:34:59.508Z,171.05
2022-12-25T04:37:01.461Z,316.17
2022-12-25T04:39:03.306Z,311.90
2022-12-25T04:41:05.908Z,134.43
2022-12-25T04:43:07.798Z,468.88
2022-12-25T04:45:10.190Z,361.55
2022-12-25T04:47:13.037Z,367.40
2022-12-25T04:49:14.845Z,108.65
2022-12-25T04:51:19.794Z,407.83
2022-12-25T04:53:21.526Z,299.60
2022-12-25T04:55:23.386Z,510.80
2022-12-25T04:57:25.408Z,172.00
2022-12-25T04:59:27.091Z,300.80
2022-12-25T05:01:29.207Z,270.35
2022-12-25T05:03:31.184Z,342.30
2022-12-25T05:05:32.894Z,138.85
2022-12-25T05:07:34.717Z,283.40
2022-12-25T05:09:36.486Z,415.17
2022-12-25T05:11:38.305Z,98.30
2022-12-25T05:13:40.199Z,150.23
2022-12-25T05:15:43.023Z,254.32
2022-12-25T05:17:44.747Z,242.33
2022-12-25T05:19:46.608Z,379.17
2022-12-25T05:21:48.396Z,125.32
2022-12-25T05:23:51.693Z,212.95
2022-12-25T05:25:53.639Z,244.93
2022-12-25T05:27:55.384Z,251.02
2022-12-25T05:29:57.048Z,218.57
2022-12-25T05:31:59.021Z,159.35
2022-12-25T05:34:00.751Z,150.65
2022-12-25T05:36:05.000Z,129.50
2022-12-25T05:38:08.335Z,181.18
2022-12-25T05:40:10.539Z,173.95
2022-12-25T05:42:12.230Z,182.63
2022-12-25T05:44:14.516Z,189.25
2022-12-25T05:46:16.520Z,178.05
2022-12-25T05:48:18.252Z,145.30
2022-12-25T05:50:20.153Z,129.88
2022-12-25T05:52:21.939Z,163.45
2022-12-25T05:54:23.614Z,152.88
2022-12-25T05:56:25.378Z,151.05
2022-12-25T05:58:27.246Z,168.70
2022-12-25T06:00:29.030Z,157.45
2022-12-25T06:02:31.005Z,157.98
2022-12-25T06:04:33.131Z,139.60
2022-12-25T06:06:34.806Z,151.50
2022-12-25T06:08:37.107Z,155.80
2022-12-25T06:10:38.885Z,159.57
2022-12-25T06:12:40.639Z,157.95
2022-12-25T06:14:42.423Z,143.25
2022-12-25T06:16:44.205Z,140.73
2022-12-25T06:18:49.026Z,142.50
2022-12-25T06:20:50.888Z,159.43
2022-12-25T06:22:52.640Z,141.77
2022-12-25T06:24:54.483Z,128.15
2022-12-25T06:26:56.200Z,147.38
2022-12-25T06:28:57.994Z,133.20
2022-12-25T06:30:59.684Z,132.02
2022-12-25T06:33:01.340Z,127.57
2022-12-25T06:35:03.111Z,132.55
2022-12-25T06:37:04.939Z,131.18
2022-12-25T06:39:06.764Z,134.07
2022-12-25T06:41:11.036Z,139.55
2022-12-25T06:43:12.785Z,176.60
2022-12-25T06:45:14.583Z,231.70
2022-12-25T06:47:16.409Z,294.35
2022-12-25T06:49:18.096Z,336.70
2022-12-25T06:51:25.214Z,510.70
2022-12-25T06:53:26.949Z,355.88
2022-12-25T06:55:28.636Z,398.10
2022-12-25T06:57:30.486Z,401.15
2022-12-25T06:59:32.393Z,402.67
2022-12-25T07:01:38.360Z,385.83
2022-12-25T07:03:40.294Z,312.95
2022-12-25T07:05:42.029Z,363.48
2022-12-25T07:07:43.730Z,262.60
2022-12-25T07:09:45.649Z,290.52
2022-12-25T07:11:47.432Z,245.45
2022-12-25T07:13:49.332Z,257.25
2022-12-25T07:15:59.448Z,308.30
2022-12-25T07:18:01.279Z,251.27
2022-12-25T07:20:03.103Z,278.40
2022-12-25T07:22:05.007Z,325.88
2022-12-25T07:24:07.207Z,392.13
2022-12-25T07:26:10.888Z,415.77
2022-12-25T07:30:14.620Z,500.85
2022-12-25T07:32:16.495Z,504.73
2022-12-25T07:34:19.143Z,615.40
2022-12-25T07:36:21.176Z,500.77
2022-12-25T07:38:22.886Z,374.52
2022-12-25T07:40:24.600Z,527.47
2022-12-25T07:42:26.285Z,997.67
2022-12-25T07:44:28.056Z,723.28
2022-12-25T07:46:30.118Z,963.78
2022-12-25T07:48:32.399Z,1067.80
2022-12-25T07:50:34.405Z,1123.60
2022-12-25T07:52:43.038Z,1194.88
2022-12-25T07:54:45.217Z,1179.68
2022-12-25T07:56:51.131Z,1127.80
2022-12-25T07:58:52.913Z,594.75
2022-12-25T08:00:54.875Z,1126.57
2022-12-25T08:02:56.939Z,1128.63
2022-12-25T08:04:58.962Z,936.65
2022-12-25T08:07:00.781Z,693.13
2022-12-25T08:09:07.764Z,570.92
2022-12-25T08:11:10.456Z,371.52
2022-12-25T08:13:14.636Z,690.75
2022-12-25T08:15:16.548Z,495.40
2022-12-25T08:17:18.257Z,578.75
2022-12-25T08:19:19.973Z,574.00
2022-12-25T08:21:21.731Z,515.25
2022-12-25T08:23:23.475Z,740.95
2022-12-25T08:25:25.240Z,607.95
2022-12-25T08:27:26.903Z,579.85
2022-12-25T08:29:28.673Z,570.25
2022-12-25T08:31:30.870Z,316.65
2022-12-25T08:33:32.594Z,248.82
2022-12-25T08:35:35.466Z,260.25
2022-12-25T08:37:37.297Z,337.48
2022-12-25T08:39:38.979Z,380.13
2022-12-25T08:41:41.004Z,796.13
2022-12-25T08:43:43.337Z,583.90
2022-12-25T08:45:47.532Z,481.00
2022-12-25T08:47:54.428Z,467.15
2022-12-25T08:49:56.314Z,453.58
2022-12-25T08:51:58.066Z,452.05
2022-12-25T08:54:01.130Z,354.80
2022-12-25T08:56:07.084Z,507.40
2022-12-25T08:58:09.261Z,409.75
2022-12-25T09:00:11.524Z,397.17
2022-12-25T09:02:13.421Z,392.63
2022-12-25T09:04:15.279Z,326.02
2022-12-25T09:06:17.560Z,457.30
2022-12-25T09:08:19.600Z,342.73
2022-12-25T09:10:21.653Z,297.00
2022-12-25T09:12:23.681Z,307.05
2022-12-25T09:14:25.580Z,286.90
2022-12-25T09:16:27.416Z,210.45
2022-12-25T09:18:29.446Z,299.08
2022-12-25T09:20:31.442Z,268.08
2022-12-25T09:22:34.720Z,236.73
2022-12-25T09:24:36.710Z,233.88
2022-12-25T09:26:38.474Z,200.40
2022-12-25T09:28:45.117Z,214.15
2022-12-25T09:30:51.862Z,187.68
2022-12-25T09:32:53.827Z,203.57
2022-12-25T09:34:55.605Z,200.32
2022-12-25T09:36:57.411Z,205.93
2022-12-25T09:38:59.211Z,230.25
2022-12-25T09:41:16.845Z,234.32
2022-12-25T09:43:21.017Z,258.23
2022-12-25T09:45:37.838Z,259.77
2022-12-25T09:47:42.990Z,218.82
2022-12-25T09:49:47.758Z,190.43
2022-12-25T09:51:57.195Z,220.43
2022-12-25T09:54:05.036Z,155.65
2022-12-25T09:56:16.845Z,218.38
2022-12-25T09:58:18.726Z,223.43
2022-12-25T10:00:23.022Z,208.75
2022-12-25T10:03:00.855Z,324.38
2022-12-25T10:05:31.803Z,179.20
2022-12-25T10:07:55.132Z,133.95
2022-12-25T10:10:02.771Z,252.18
2022-12-25T10:12:28.248Z,200.15
2022-12-25T10:15:01.977Z,235.45
2022-12-25T10:17:18.801Z,285.98
2022-12-25T10:19:35.233Z,312.58
2022-12-25T10:21:37.516Z,218.10
2022-12-25T10:23:48.200Z,219.95
2022-12-25T10:25:51.736Z,241.25
2022-12-25T10:27:58.347Z,204.93
2022-12-25T10:30:02.521Z,161.38
2022-12-25T10:32:04.564Z,181.00
2022-12-25T10:34:06.960Z,169.32
2022-12-25T10:36:09.279Z,142.80
2022-12-25T10:38:16.658Z,150.90
2022-12-25T10:40:28.074Z,188.38
2022-12-25T10:42:42.689Z,171.85
2022-12-25T10:45:08.367Z,206.55
2022-12-25T10:47:10.311Z,138.20
2022-12-25T10:49:16.110Z,309.73
2022-12-25T10:51:38.648Z,356.98
2022-12-25T10:53:43.213Z,457.45
2022-12-25T10:56:01.351Z,347.75
2022-12-25T10:58:03.052Z,226.65
2022-12-25T11:00:05.982Z,186.45
2022-12-25T11:02:28.208Z,183.65
2022-12-25T11:04:34.961Z,164.82
2022-12-25T11:06:36.761Z,148.48
2022-12-25T11:08:38.561Z,119.85
2022-12-25T11:10:41.084Z,139.30
2022-12-25T11:12:45.481Z,152.73
2022-12-25T11:14:57.686Z,154.18
2022-12-25T11:17:09.803Z,160.20
2022-12-25T11:19:26.702Z,181.82
2022-12-25T11:21:31.106Z,205.20
2022-12-25T11:23:32.942Z,169.63
2022-12-25T11:25:34.871Z,170.80
2022-12-25T11:27:36.895Z,223.77
2022-12-25T11:29:50.788Z,236.50
2022-12-25T11:31:54.741Z,254.07
2022-12-25T11:33:56.610Z,180.68
2022-12-25T11:36:06.398Z,283.92
2022-12-25T11:38:08.738Z,409.48
2022-12-25T11:40:23.882Z,325.27
2022-12-25T11:42:37.327Z,268.90
2022-12-25T11:44:57.107Z,282.27
2022-12-25T11:47:08.275Z,257.35
2022-12-25T11:49:16.352Z,276.52
2022-12-25T11:51:20.002Z,294.33
2022-12-25T11:55:45.392Z,276.02
2022-12-25T11:57:53.657Z,304.67
2022-12-25T12:00:08.696Z,310.15
2022-12-25T12:02:26.984Z,377.15
2022-12-25T12:04:40.317Z,327.02
2022-12-25T12:07:08.577Z,337.75
2022-12-25T12:09:40.935Z,303.80
2022-12-25T12:11:51.897Z,318.45
2022-12-25T12:14:17.083Z,338.52
2022-12-25T12:16:19.139Z,289.00
2022-12-25T12:18:26.802Z,284.77
2022-12-25T12:20:32.282Z,284.00
2022-12-25T12:22:34.106Z,216.23
2022-12-25T12:24:42.819Z,302.45
2022-12-25T12:26:47.394Z,292.85
2022-12-25T12:28:51.654Z,363.73
2022-12-25T12:31:03.703Z,302.30
2022-12-25T12:33:07.941Z,248.98
2022-12-25T12:35:38.289Z,220.88
2022-12-25T12:37:42.110Z,208.25
2022-12-25T12:39:44.815Z,265.67
2022-12-25T12:41:49.117Z,267.90
2022-12-25T12:44:03.180Z,238.18
2022-12-25T12:46:31.000Z,238.82
2022-12-25T12:48:42.424Z,271.45
2022-12-25T12:50:44.227Z,311.13
2022-12-25T12:52:46.011Z,281.88
2022-12-25T12:55:04.688Z,272.05
2022-12-25T12:57:24.025Z,225.07
2022-12-25T12:59:27.073Z,234.90
2022-12-25T13:02:20.452Z,264.80
2022-12-25T13:04:43.439Z,215.13
2022-12-25T13:06:58.960Z,202.13
2022-12-25T13:09:03.689Z,232.43
2022-12-25T13:11:15.014Z,231.13
2022-12-25T13:13:30.105Z,223.77
2022-12-25T13:15:34.902Z,220.43
2022-12-25T13:17:37.307Z,202.63
2022-12-25T13:19:43.124Z,216.55
2022-12-25T13:22:02.105Z,218.20
2022-12-25T13:24:19.798Z,189.57
2022-12-25T13:26:21.516Z,231.18
2022-12-25T13:28:33.833Z,676.40
2022-12-25T13:30:36.028Z,310.17
2022-12-25T13:32:37.910Z,233.63
2022-12-25T13:34:42.436Z,311.25
2022-12-25T13:36:44.583Z,346.13
2022-12-25T13:38:49.220Z,355.80
2022-12-25T13:40:56.545Z,344.10
2022-12-25T13:43:00.734Z,296.83
2022-12-25T13:45:04.368Z,257.15
2022-12-25T13:47:23.011Z,379.08
2022-12-25T13:49:25.128Z,312.73
2022-12-25T13:51:27.928Z,310.85
2022-12-25T13:53:29.626Z,381.80
2022-12-25T13:55:33.984Z,301.48
2022-12-25T13:57:38.932Z,270.73
2022-12-25T13:59:44.505Z,435.77
2022-12-25T14:01:46.996Z,436.08
2022-12-25T14:03:48.880Z,359.10
2022-12-25T14:05:59.451Z,334.75
2022-12-25T14:08:03.601Z,474.40
2022-12-25T14:10:06.314Z,432.13
2022-12-25T14:12:10.739Z,444.53
2022-12-25T14:14:20.429Z,326.55
2022-12-25T14:16:23.307Z,360.15
2022-12-25T14:18:26.112Z,442.83
2022-12-25T14:20:31.152Z,429.27
2022-12-25T14:22:32.889Z,372.17
2022-12-25T14:24:35.139Z,464.70
2022-12-25T14:26:37.088Z,430.65
2022-12-25T14:28:38.804Z,425.20
2022-12-25T14:30:42.799Z,402.33
2022-12-25T14:32:48.783Z,416.27
2022-12-25T14:34:54.803Z,420.50
2022-12-25T14:36:56.920Z,458.35
2022-12-25T14:39:01.397Z,432.00
2022-12-25T14:41:06.290Z,411.20
2022-12-25T14:43:27.366Z,410.25
2022-12-25T14:45:32.311Z,372.65
2022-12-25T14:47:50.097Z,478.38
2022-12-25T14:49:51.821Z,480.25
2022-12-25T14:51:53.545Z,517.88
2022-12-25T14:53:58.163Z,527.03
2022-12-25T14:56:00.259Z,589.60
2022-12-25T14:58:05.517Z,497.15
2022-12-25T15:00:20.158Z,589.92
2022-12-25T15:02:22.110Z,563.88
2022-12-25T15:04:26.171Z,644.92
2022-12-25T15:06:28.892Z,668.50
2022-12-25T15:08:32.464Z,493.23
2022-12-25T15:12:56.552Z,494.15
2022-12-25T15:14:58.260Z,487.98
2022-12-25T15:17:01.500Z,549.28
2022-12-25T15:19:03.299Z,557.50
2022-12-25T15:21:05.266Z,550.45
2022-12-25T15:23:21.156Z,584.53
2022-12-25T15:25:23.403Z,571.90
2022-12-25T15:27:25.057Z,525.78
2022-12-25T15:30:07.250Z,485.98
2022-12-25T15:31:48.814Z,554.75
2022-12-25T15:33:51.304Z,565.72
2022-12-25T15:35:53.350Z,557.85
2022-12-25T15:37:55.031Z,469.80
2022-12-25T15:39:57.505Z,457.45
2022-12-25T15:42:00.167Z,366.75
2022-12-25T15:44:02.253Z,468.23
2022-12-25T15:46:04.118Z,362.50
2022-12-25T15:48:06.374Z,316.92
2022-12-25T15:50:09.735Z,318.73
2022-12-25T15:52:14.938Z,284.50
2022-12-25T15:54:16.765Z,312.40
2022-12-25T15:56:19.013Z,337.70
2022-12-25T15:58:20.760Z,308.55
2022-12-25T16:00:23.285Z,326.15
2022-12-25T16:02:25.246Z,279.73
2022-12-25T16:04:28.577Z,356.27
2022-12-25T16:06:30.740Z,297.60
2022-12-25T16:08:32.385Z,320.50
2022-12-25T16:10:38.653Z,259.67
2022-12-25T16:12:41.079Z,293.83
2022-12-25T16:14:42.770Z,313.48
2022-12-25T16:16:44.465Z,306.58
2022-12-25T16:18:47.592Z,399.98
2022-12-25T16:20:53.916Z,366.88
2022-12-25T16:22:55.755Z,476.13
2022-12-25T16:24:57.589Z,447.00
2022-12-25T16:26:59.309Z,490.00
2022-12-25T16:29:06.690Z,472.60
2022-12-25T16:31:09.116Z,454.17
2022-12-25T16:33:11.209Z,559.60
2022-12-25T16:35:12.930Z,519.22
2022-12-25T16:37:14.920Z,385.45
2022-12-25T16:39:16.589Z,379.52
2022-12-25T16:41:18.295Z,432.60
2022-12-25T16:43:23.913Z,411.40
2022-12-25T16:45:26.043Z,514.35
2022-12-25T16:47:27.785Z,390.40
2022-12-25T16:49:29.956Z,678.60
2022-12-25T16:51:31.847Z,438.08
2022-12-25T16:53:33.503Z,461.02
2022-12-25T16:55:36.566Z,505.17
2022-12-25T16:57:38.311Z,657.35
2022-12-25T16:59:40.169Z,678.92
2022-12-25T17:01:42.770Z,593.92
2022-12-25T17:03:44.796Z,548.97
2022-12-25T17:05:46.549Z,470.20
2022-12-25T17:07:48.440Z,475.23
2022-12-25T17:09:50.231Z,485.33
2022-12-25T17:11:51.988Z,422.85
2022-12-25T17:13:54.509Z,450.13
2022-12-25T17:15:56.285Z,446.50
2022-12-25T17:17:57.966Z,479.60
2022-12-25T17:20:00.026Z,435.17
2022-12-25T17:22:01.776Z,373.70
2022-12-25T17:24:04.376Z,474.30
2022-12-25T17:26:06.468Z,431.20
2022-12-25T17:28:08.182Z,519.50
2022-12-25T17:30:10.325Z,481.85
2022-12-25T17:32:12.984Z,481.73
2022-12-25T17:34:14.673Z,495.77
2022-12-25T17:36:19.030Z,541.78
2022-12-25T17:38:21.034Z,511.98
2022-12-25T17:40:22.714Z,580.88
2022-12-25T17:42:24.418Z,501.10
2022-12-25T17:44:26.326Z,401.27
2022-12-25T17:46:29.996Z,516.55
2022-12-25T17:50:37.487Z,420.10
2022-12-25T17:52:42.934Z,425.88
2022-12-25T17:54:44.619Z,394.42
2022-12-25T17:56:46.378Z,443.23
2022-12-25T17:58:53.006Z,313.60
2022-12-25T18:00:55.135Z,467.95
2022-12-25T18:02:57.809Z,365.05
2022-12-25T18:04:59.670Z,336.80
2022-12-25T18:07:01.379Z,417.95
2022-12-25T18:09:05.076Z,364.95
2022-12-25T18:13:11.709Z,377.93
2022-12-25T18:15:13.555Z,480.17
2022-12-25T18:17:15.215Z,402.83
2022-12-25T18:19:16.951Z,499.85
2022-12-25T18:21:19.087Z,241.57
2022-12-25T18:23:21.061Z,379.58
2022-12-25T18:25:22.819Z,299.50
2022-12-25T18:27:24.889Z,303.27
2022-12-25T18:29:26.557Z,359.95
2022-12-25T18:31:29.143Z,277.52
2022-12-25T18:33:31.118Z,382.65
2022-12-25T18:35:32.897Z,478.88
2022-12-25T18:37:39.872Z,381.60
2022-12-25T18:39:42.300Z,435.90
2022-12-25T18:41:44.115Z,357.73
2022-12-25T18:43:52.812Z,267.48
2022-12-25T18:45:58.297Z,400.60
2022-12-25T18:48:00.398Z,315.88
2022-12-25T18:50:02.111Z,361.10
2022-12-25T18:52:49.609Z,338.50
2022-12-25T18:54:25.680Z,319.05
2022-12-25T18:56:27.352Z,284.90
2022-12-25T18:58:29.086Z,237.43
2022-12-25T19:00:30.879Z,282.67
2022-12-25T19:02:32.798Z,231.38
2022-12-25T19:04:35.928Z,245.50
2022-12-25T19:06:37.677Z,207.93
2022-12-25T19:08:39.374Z,253.20
2022-12-25T19:10:43.801Z,243.55
2022-12-25T19:12:45.514Z,233.10
2022-12-25T19:14:48.339Z,263.60
2022-12-25T19:16:50.427Z,223.82
2022-12-25T19:18:52.203Z,261.73
2022-12-25T19:20:53.896Z,217.55
2022-12-25T19:22:55.732Z,204.00
2022-12-25T19:24:57.424Z,244.65
2022-12-25T19:26:59.231Z,227.88
2022-12-25T19:29:01.080Z,252.90
2022-12-25T19:31:03.933Z,234.05
2022-12-25T19:33:05.652Z,467.98
2022-12-25T19:35:07.679Z,271.92
2022-12-25T19:37:09.385Z,245.98
2022-12-25T19:39:11.788Z,227.05
2022-12-25T19:41:17.522Z,238.07
2022-12-25T19:43:19.241Z,295.50
2022-12-25T19:45:21.029Z,315.65
2022-12-25T19:47:23.095Z,255.50
2022-12-25T19:49:24.829Z,326.27
2022-12-25T19:51:28.581Z,230.93
2022-12-25T19:53:31.093Z,212.95
2022-12-25T19:55:32.932Z,210.52
2022-12-25T19:57:34.703Z,226.77
2022-12-25T19:59:36.473Z,186.15
2022-12-25T20:01:38.909Z,164.85
2022-12-25T20:03:45.838Z,152.18
2022-12-25T20:05:48.213Z,175.70
2022-12-25T20:07:49.917Z,162.55
2022-12-25T20:09:51.652Z,199.25
2022-12-25T20:11:53.408Z,164.45
2022-12-25T20:13:55.604Z,191.65
2022-12-25T20:16:01.044Z,214.18
2022-12-25T20:18:03.045Z,185.55
2022-12-25T20:20:05.636Z,202.50
2022-12-25T20:22:07.568Z,192.63
2022-12-25T20:24:10.247Z,222.98
2022-12-25T20:26:13.051Z,173.60
2022-12-25T20:28:16.892Z,197.73
2022-12-25T20:30:18.748Z,194.63
2022-12-25T20:32:20.551Z,208.07
2022-12-25T20:34:22.339Z,200.82
2022-12-25T20:36:24.156Z,174.00
2022-12-25T20:38:25.877Z,152.18
2022-12-25T20:40:27.692Z,169.98
2022-12-25T20:42:34.422Z,167.27
2022-12-25T20:44:36.431Z,164.68
2022-12-25T20:46:38.143Z,173.05
2022-12-25T20:48:40.313Z,210.40
2022-12-25T20:50:41.967Z,204.82
2022-12-25T20:52:43.660Z,236.85
2022-12-25T20:54:45.615Z,233.10
2022-12-25T20:56:48.867Z,212.02
2022-12-25T20:58:58.865Z,244.38
2022-12-25T21:01:13.800Z,238.35
2022-12-25T21:03:15.633Z,239.13
2022-12-25T21:05:17.448Z,301.80
2022-12-25T21:07:19.290Z,325.35
2022-12-25T21:09:20.975Z,198.57
2022-12-25T21:11:22.731Z,219.00
2022-12-25T21:13:25.481Z,216.75
2022-12-25T21:15:27.162Z,237.07
2022-12-25T21:17:28.823Z,203.45
2022-12-25T21:19:30.831Z,226.18
2022-12-25T21:21:32.525Z,237.90
2022-12-25T21:23:35.705Z,209.13
2022-12-25T21:25:38.211Z,195.30
2022-12-25T21:27:39.878Z,178.25
2022-12-25T21:29:41.700Z,179.65
2022-12-25T21:31:43.808Z,197.85
2022-12-25T21:33:46.047Z,161.25
2022-12-25T21:35:48.201Z,143.80
2022-12-25T21:37:50.149Z,174.52
2022-12-25T21:39:51.972Z,148.70
2022-12-25T21:41:53.720Z,156.55
2022-12-25T21:43:56.224Z,142.20
2022-12-25T21:46:02.198Z,138.82
2022-12-25T21:48:04.214Z,150.10
2022-12-25T21:50:06.506Z,132.40
2022-12-25T21:52:08.172Z,132.25
2022-12-25T21:54:11.051Z,129.82
2022-12-25T21:56:13.000Z,129.63
2022-12-25T21:58:14.733Z,125.90
2022-12-25T22:00:16.553Z,110.15
2022-12-25T22:02:18.461Z,130.82
2022-12-25T22:04:22.712Z,129.23
2022-12-25T22:06:24.377Z,126.20
2022-12-25T22:08:30.460Z,128.50
2022-12-25T22:10:32.131Z,133.50
2022-12-25T22:12:34.552Z,131.25
2022-12-25T22:14:51.629Z,130.15
2022-12-25T22:16:55.381Z,124.45
2022-12-25T22:18:57.131Z,109.10
2022-12-25T22:20:58.803Z,116.93
2022-12-25T22:23:00.580Z,128.07
2022-12-25T22:25:04.590Z,117.10
2022-12-25T22:27:06.355Z,116.00
2022-12-25T22:29:08.074Z,129.48
2022-12-25T22:31:09.838Z,141.27
2022-12-25T22:33:11.869Z,138.90
2022-12-25T22:35:14.310Z,126.63
2022-12-25T22:37:18.013Z,111.85
2022-12-25T22:41:21.384Z,112.30
2022-12-25T22:43:32.545Z,118.60
2022-12-25T22:45:44.906Z,118.43
2022-12-25T22:47:46.571Z,124.68
2022-12-25T22:49:49.359Z,122.10
2022-12-25T22:51:52.457Z,200.63
2022-12-25T22:53:57.511Z,136.60
2022-12-25T22:56:03.546Z,136.70
2022-12-25T22:58:05.734Z,106.38
2022-12-25T23:00:08.139Z,96.80
2022-12-25T23:02:10.044Z,119.32
2022-12-25T23:04:13.130Z,108.03
2022-12-25T23:06:14.839Z,121.30
2022-12-25T23:08:16.554Z,121.38
2022-12-25T23:10:18.247Z,123.32
2022-12-25T23:12:19.954Z,115.47
2022-12-25T23:14:21.711Z,105.70
2022-12-25T23:16:24.177Z,112.95
2022-12-25T23:18:25.918Z,99.75
2022-12-25T23:20:27.669Z,112.78
2022-12-25T23:22:29.670Z,98.57
2022-12-25T23:24:31.354Z,105.28
2022-12-25T23:26:33.053Z,102.60
2022-12-25T23:28:42.371Z,102.93
2022-12-25T23:30:44.025Z,100.95
2022-12-25T23:32:45.755Z,92.25
2022-12-25T23:34:47.716Z,99.88
2022-12-25T23:36:49.378Z,104.03
2022-12-25T23:38:51.172Z,90.80
2022-12-25T23:40:53.002Z,92.60
2022-12-25T23:42:54.738Z,96.35
2022-12-25T23:44:56.408Z,87.15
2022-12-25T23:46:58.466Z,87.35
2022-12-25T23:49:00.239Z,86.55
2022-12-25T23:51:06.401Z,85.25
2022-12-25T23:53:08.361Z,85.70
2022-12-25T23:55:10.147Z,83.70
2022-12-25T23:57:11.823Z,82.65
2022-12-25T23:59:14.468Z,78.15
